Cherokee, Kentucky
Current Conditions -  °F | °C
As of 1:51 PM on Wednesday 26 Nov 2014 (Local Time) from KHTS Reporting Station
Clear Clear  
Wind Chill: 45°   Ceiling: Unl
Heat Index: 45°   Visibility: 10mi
Dew Point: 31°   Wind: 3mph
Humidity: 58%   Direction: 20°NNE
Pressure: 30.01"   Gusts: NA
Location:  38.152°N, 82.7951°W
Report Text: KHTS 261851Z 02003KT 10SM CLR 07/M01 A3001 RMK AO2 SLP165 T00721006
Loading
Personal Weather Stations






























Interactive Weather Map New forecast layout! Learn more

10-Day Weather Forecast

Advertisements
Track Severe Weather on mobile